Time;durP1;ratioP1;P1;durP2;ratioP2;P2;SDS_P1;SDS_P2;PMS_P1;PMS_P2;Temp;Humidity;BMP_temperature;BMP_pressure;BME280_temperature;BME280_humidity;BME280_pressure;Samples;Min_cycle;Max_cycle;Signal;HPM_P1;HPM_P2
2023/05/14 00:02:59;;;;;;;12.93;6.43;;;;;;;11.12;88.84;100879.38;5055804;28;20140;-67
2023/05/14 00:06:03;;;;;;;8.15;5.50;;;;;;;11.12;88.43;100879.38;5055705;28;20102;-67
2023/05/14 00:09:06;;;;;;;9.65;5.47;;;;;;;11.04;89.05;100891.13;5055408;28;20075;-67
2023/05/14 00:12:10;;;;;;;9.85;6.63;;;;;;;11.11;89.05;100887.31;5055554;28;20162;-67
2023/05/14 00:15:14;;;;;;;9.48;5.60;;;;;;;11.09;88.96;100874.28;5055584;28;20125;-68
2023/05/14 00:18:17;;;;;;;13.05;6.00;;;;;;;10.80;90.61;100873.09;5055378;28;20087;-67
2023/05/14 00:21:20;;;;;;;9.38;5.25;;;;;;;10.73;90.88;100878.69;5055393;28;20510;-69
2023/05/14 00:24:24;;;;;;;7.55;5.55;;;;;;;10.85;90.77;100880.72;5055198;28;20051;-67
2023/05/14 00:27:27;;;;;;;;;;;;;;;10.93;90.05;100871.56;5056078;28;20129;-67
2023/05/14 00:30:30;;;;;;;8.15;5.55;;;;;;;10.93;90.26;100870.72;5041250;28;19923;-67
2023/05/14 00:33:34;;;;;;;6.82;6.07;;;;;;;10.97;89.57;100863.56;5053715;28;20056;-67
2023/05/14 00:36:37;;;;;;;8.60;5.13;;;;;;;10.88;90.07;100862.25;5054705;28;20118;-67
2023/05/14 00:39:40;;;;;;;;;;;;;;;10.83;90.56;100852.00;5054807;28;20048;-67
2023/05/14 00:42:43;;;;;;;6.43;5.80;;;;;;;10.97;89.65;100859.19;5054500;28;19919;-67
2023/05/14 00:45:50;;;;;;;16.83;6.78;;;;;;;10.69;90.26;100862.31;5054985;28;20063;-67
2023/05/14 00:48:53;;;;;;;7.22;6.13;;;;;;;10.64;90.76;100856.44;5054554;28;20040;-67
2023/05/14 00:51:57;;;;;;;10.57;5.43;;;;;;;10.74;90.46;100856.84;5054855;28;20073;-67
2023/05/14 00:55:04;;;;;;;9.32;5.65;;;;;;;10.66;90.51;100857.22;5054680;28;20411;-69
2023/05/14 00:58:10;;;;;;;12.50;5.90;;;;;;;10.53;90.53;100853.44;5054734;28;20047;-67
2023/05/14 01:01:14;;;;;;;6.32;5.43;;;;;;;10.49;91.14;100852.75;5054364;28;20079;-67
2023/05/14 01:04:20;;;;;;;6.47;5.50;;;;;;;10.53;91.06;100856.06;5054546;28;20087;-67
2023/05/14 01:07:48;;;;;;;5.63;5.03;;;;;;;10.45;91.95;100845.97;5031914;28;20111;-69
2023/05/14 01:10:56;;;;;;;8.15;5.72;;;;;;;10.39;92.34;100841.88;5054489;28;20067;-67
2023/05/14 01:14:29;;;;;;;7.72;5.10;;;;;;;10.38;92.13;100841.97;5054711;28;20538;-68
2023/05/14 01:17:44;;;;;;;15.48;5.45;;;;;;;10.26;93.08;100845.97;5041952;28;20047;-69
2023/05/14 01:20:53;;;;;;;7.97;5.47;;;;;;;10.28;93.28;100848.53;5054417;28;20527;-68
2023/05/14 01:23:55;;;;;;;6.47;5.80;;;;;;;10.29;92.87;100848.44;5054304;28;20052;-68
2023/05/14 01:27:23;;;;;;;8.20;5.13;;;;;;;10.32;92.39;100848.31;5054323;28;20063;-68
2023/05/14 01:30:39;;;;;;;7.78;4.63;;;;;;;10.47;91.50;100842.38;5041729;28;20607;-68
2023/05/14 01:33:43;;;;;;;10.48;5.03;;;;;;;10.35;91.73;100840.34;5041790;28;20068;-68
2023/05/14 01:36:48;;;;;;;7.57;5.65;;;;;;;10.16;92.67;100845.53;5041658;28;20086;-68
2023/05/14 01:39:53;;;;;;;6.93;5.18;;;;;;;10.34;91.35;100851.72;5053895;28;20040;-68
2023/05/14 01:42:56;;;;;;;8.25;5.45;;;;;;;10.20;91.95;100854.91;5041519;28;20040;-68
2023/05/14 01:45:59;;;;;;;10.25;5.28;;;;;;;10.13;92.20;100852.66;5041640;28;20048;-68
2023/05/14 01:49:04;;;;;;;6.15;4.55;;;;;;;10.18;92.71;100842.84;5041490;28;20099;-68
2023/05/14 01:52:07;;;;;;;;;;;;;;;10.05;93.98;100853.00;5042049;28;20043;-68
2023/05/14 01:55:10;;;;;;;;;;;;;;;9.99;94.48;100848.06;5041741;28;19970;-68
2023/05/14 01:58:13;;;;;;;8.63;5.90;;;;;;;9.92;94.47;100842.25;5053806;28;19920;-68
2023/05/14 02:01:17;;;;;;;12.13;5.63;;;;;;;10.11;93.46;100842.25;5040775;28;20527;-68
2023/05/14 02:04:20;;;;;;;29.95;5.43;;;;;;;10.07;94.06;100842.47;5040208;28;20153;-68
2023/05/14 02:07:23;;;;;;;;;;;;;;;9.86;94.55;100846.88;5053638;28;20091;-69
2023/05/14 02:10:27;;;;;;;5.05;4.55;;;;;;;9.76;94.74;100836.00;5040949;28;19927;-69
2023/05/14 02:13:31;;;;;;;4.30;3.88;;;;;;;9.85;93.84;100834.75;5040968;28;20103;-68
2023/05/14 02:16:34;;;;;;;;;;;;;;;9.80;92.75;100832.34;5053821;28;20124;-68
2023/05/14 02:19:37;;;;;;;8.23;5.45;;;;;;;9.85;91.71;100834.75;5053206;28;19997;-68
2023/05/14 02:22:44;;;;;;;5.90;4.82;;;;;;;9.78;91.61;100834.16;5041253;28;20523;-68
2023/05/14 02:25:47;;;;;;;5.18;4.07;;;;;;;9.76;91.07;100838.59;5053053;28;20081;-68
2023/05/14 02:28:50;;;;;;;7.28;4.05;;;;;;;9.88;90.54;100835.47;5053244;28;20094;-68
2023/05/14 02:31:53;;;;;;;13.27;5.07;;;;;;;9.71;90.42;100840.59;5034866;28;20063;-68
2023/05/14 02:34:57;;;;;;;7.55;5.13;;;;;;;9.65;91.27;100833.00;5053083;28;20156;-69
2023/05/14 02:38:00;;;;;;;7.22;4.63;;;;;;;9.63;91.60;100829.63;5053020;28;20056;-68
2023/05/14 02:41:05;;;;;;;6.07;4.63;;;;;;;9.64;91.34;100823.50;5036063;28;20091;-68
2023/05/14 02:44:09;;;;;;;5.80;4.55;;;;;;;9.64;90.72;100823.50;5053043;28;20036;-68
2023/05/14 02:47:12;;;;;;;18.92;5.72;;;;;;;9.59;91.71;100822.84;5052955;28;20098;-68
2023/05/14 02:50:16;;;;;;;5.70;3.92;;;;;;;9.75;91.01;100818.63;5040320;28;20107;-68
2023/05/14 02:53:19;;;;;;;5.05;4.28;;;;;;;9.70;91.24;100821.47;5039167;28;20519;-68
2023/05/14 02:56:23;;;;;;;;;;;;;;;9.75;91.22;100819.47;5053090;28;20112;-68
2023/05/14 02:59:26;;;;;;;4.50;3.73;;;;;;;9.87;89.84;100817.25;5052677;28;19919;-68
2023/05/14 03:02:30;;;;;;;6.30;4.85;;;;;;;9.95;89.32;100826.41;5040048;28;20055;-68
2023/05/14 03:05:33;;;;;;;6.57;3.85;;;;;;;9.98;89.23;100815.84;5040284;28;20136;-68
2023/05/14 03:08:37;;;;;;;7.25;5.18;;;;;;;9.76;90.43;100815.97;5040443;28;20132;-68
2023/05/14 03:11:40;;;;;;;5.00;4.32;;;;;;;9.94;89.71;100824.72;5052523;28;20043;-68
2023/05/14 03:14:44;;;;;;;8.82;4.97;;;;;;;9.94;89.56;100816.91;5052458;28;20467;-68
2023/05/14 03:17:48;;;;;;;5.75;4.47;;;;;;;9.90;89.82;100819.72;5039996;28;20047;-68
2023/05/14 03:20:52;;;;;;;6.35;4.68;;;;;;;9.81;90.30;100820.13;5039936;28;20155;-68
2023/05/14 03:23:55;;;;;;;6.28;4.97;;;;;;;9.68;90.55;100825.06;5039166;28;20103;-68
2023/05/14 03:27:02;;;;;;;5.15;4.63;;;;;;;9.54;91.02;100823.91;5029431;28;20094;-68
2023/05/14 03:30:06;;;;;;;5.53;4.97;;;;;;;9.68;90.18;100823.28;5052268;28;20052;-68
2023/05/14 03:33:12;;;;;;;5.30;4.10;;;;;;;9.75;89.63;100818.63;5052551;28;20052;-71
2023/05/14 03:36:15;;;;;;;6.97;5.10;;;;;;;9.75;89.03;100818.63;5052236;28;20519;-68
2023/05/14 03:39:19;;;;;;;;;;;;;;;9.82;88.68;100820.06;5052482;28;20505;-68
2023/05/14 03:42:24;;;;;;;6.15;4.65;;;;;;;9.78;89.10;100815.88;5052484;28;19961;-68
2023/05/14 03:45:29;;;;;;;5.63;5.03;;;;;;;9.80;89.37;100815.84;5039887;28;20524;-68
2023/05/14 03:48:34;;;;;;;5.78;4.60;;;;;;;9.71;89.40;100810.09;5039822;28;20147;-68
2023/05/14 03:51:40;;;;;;;6.32;4.55;;;;;;;9.78;89.33;100813.28;5039737;28;20094;-68
2023/05/14 03:54:43;;;;;;;10.75;5.03;;;;;;;9.77;89.60;100812.44;5052006;28;20043;-68
2023/05/14 03:57:47;;;;;;;;;;;;;;;9.47;91.03;100813.75;5052665;28;20107;-68
2023/05/14 04:00:50;;;;;;;5.85;4.97;;;;;;;9.51;91.06;100818.81;5039376;28;20016;-68
2023/05/14 04:03:53;;;;;;;5.38;4.47;;;;;;;9.65;89.66;100806.91;5052180;28;20082;-68
2023/05/14 04:06:57;;;;;;;5.70;5.05;;;;;;;9.73;89.55;100816.09;5039653;28;20043;-68
2023/05/14 04:10:01;;;;;;;;;;;;;;;9.76;89.36;100815.09;5039548;28;20400;-68
2023/05/14 04:13:04;;;;;;;5.68;4.63;;;;;;;9.65;89.95;100806.91;5039696;28;19951;-69
2023/05/14 04:16:10;;;;;;;4.78;4.28;;;;;;;9.69;90.04;100814.53;5039720;28;20052;-68
2023/05/14 04:19:13;;;;;;;;;;;;;;;9.77;89.10;100822.03;5040297;28;20056;-69
2023/05/14 04:22:18;;;;;;;10.85;8.88;;;;;;;9.79;88.78;100820.19;5051915;28;19966;-68
2023/05/14 04:25:24;;;;;;;10.25;7.47;;;;;;;9.74;88.71;100823.00;5053407;28;20047;-68
2023/05/14 04:28:27;;;;;;;7.35;6.53;;;;;;;9.76;89.53;100820.31;5055335;28;20047;-68
2023/05/14 04:31:32;;;;;;;;;;;;;;;9.78;88.97;100823.72;5055700;28;20108;-68
2023/05/14 04:34:43;;;;;;;5.30;4.65;;;;;;;9.71;88.68;100823.16;5055500;28;19966;-69
2023/05/14 04:37:48;;;;;;;4.95;4.18;;;;;;;9.63;89.24;100821.78;5055210;28;20090;-68
2023/05/14 04:40:56;;;;;;;5.72;4.07;;;;;;;9.76;89.30;100820.31;5055393;28;20076;-69
2023/05/14 04:44:00;;;;;;;;;;;;;;;9.53;90.66;100826.56;5055538;28;20044;-69
2023/05/14 04:47:03;;;;;;;5.30;4.20;;;;;;;9.36;91.77;100831.66;5054342;28;19935;-68
2023/05/14 04:50:08;;;;;;;6.03;4.38;;;;;;;9.34;91.53;100828.25;5053591;28;20407;-68
2023/05/14 04:53:12;;;;;;;5.40;4.28;;;;;;;9.26;91.34;100825.97;5054333;28;20162;-68
2023/05/14 04:56:15;;;;;;;5.07;3.67;;;;;;;9.42;91.30;100832.25;5051093;28;20512;-68
2023/05/14 04:59:18;;;;;;;;;;;;;;;9.39;91.51;100823.69;5054835;28;20403;-69
2023/05/14 05:02:26;;;;;;;4.22;3.28;;;;;;;9.42;91.83;100832.25;5054521;28;19923;-68
2023/05/14 05:05:30;;;;;;;4.43;3.50;;;;;;;9.47;90.71;100832.03;5054540;28;20047;-69
2023/05/14 05:08:33;;;;;;;5.03;2.92;;;;;;;9.36;91.10;100834.28;5054853;28;20098;-68
2023/05/14 05:11:37;;;;;;;;;;;;;;;9.38;91.89;100838.50;5054902;28;20052;-68
2023/05/14 05:14:40;;;;;;;4.25;3.58;;;;;;;9.34;91.98;100841.31;5054721;28;19971;-68
2023/05/14 05:17:44;;;;;;;4.57;2.90;;;;;;;9.22;91.99;100832.22;5054347;28;20510;-68
2023/05/14 05:20:47;;;;;;;9.05;3.83;;;;;;;9.22;92.19;100835.69;5054380;28;20040;-68
2023/05/14 05:23:50;;;;;;;4.50;3.83;;;;;;;9.24;92.65;100836.47;5054247;28;20459;-68
2023/05/14 05:26:54;;;;;;;5.18;3.28;;;;;;;9.35;91.88;100832.53;5054348;28;20052;-68
2023/05/14 05:29:58;;;;;;;5.90;3.58;;;;;;;9.31;92.58;100834.44;5054130;28;20086;-68
2023/05/14 05:33:01;;;;;;;4.03;3.35;;;;;;;9.26;92.79;100831.19;5054066;28;20076;-68
2023/05/14 05:36:05;;;;;;;4.20;3.50;;;;;;;9.27;93.07;100840.72;5053664;28;20586;-68
2023/05/14 05:39:08;;;;;;;8.40;3.67;;;;;;;9.42;92.08;100839.22;5054235;28;20067;-68
2023/05/14 05:42:11;;;;;;;4.10;3.70;;;;;;;9.44;91.77;100840.84;5041837;28;20036;-68
2023/05/14 05:45:14;;;;;;;;;;;;;;;9.50;91.87;100845.81;5054655;28;20055;-68
2023/05/14 05:48:17;;;;;;;3.67;3.13;;;;;;;9.50;92.13;100845.81;5053994;28;19919;-68
2023/05/14 05:51:20;;;;;;;;;;;;;;;9.58;91.60;100847.25;5054276;28;20051;-68
2023/05/14 05:54:24;;;;;;;4.00;3.10;;;;;;;9.57;90.95;100846.38;5053771;28;20398;-68
2023/05/14 05:57:27;;;;;;;;;;;;;;;9.50;90.89;100845.81;5054116;28;20451;-68
2023/05/14 06:00:30;;;;;;;4.63;3.63;;;;;;;9.65;90.86;100852.13;5053352;28;20011;-69
2023/05/14 06:03:34;;;;;;;5.05;4.55;;;;;;;9.70;91.26;100852.81;5053525;28;20806;-68
2023/05/14 06:06:38;;;;;;;4.25;3.75;;;;;;;9.61;91.38;100842.75;5052957;28;20051;-69
2023/05/14 06:09:43;;;;;;;5.88;3.92;;;;;;;9.76;90.64;100841.22;5051621;28;20040;-68
2023/05/14 06:12:46;;;;;;;4.50;3.53;;;;;;;9.90;90.87;100844.09;5051710;28;20043;-68
2023/05/14 06:15:49;;;;;;;;;;;;;;;10.02;89.24;100843.53;5045980;28;20048;-68
2023/05/14 06:18:56;;;;;;;4.50;3.73;;;;;;;9.92;89.78;100842.25;5052402;28;19918;-69
2023/05/14 06:21:59;;;;;;;6.65;4.15;;;;;;;9.86;89.54;100839.91;5052489;28;20068;-69
2023/05/14 06:25:03;;;;;;;5.82;4.18;;;;;;;9.88;90.19;100845.06;5053254;28;20060;-68
2023/05/14 06:28:06;;;;;;;6.00;3.63;;;;;;;9.95;90.42;100852.53;5053079;28;20119;-68
2023/05/14 06:31:10;;;;;;;4.20;3.63;;;;;;;9.92;90.70;100847.47;5053063;28;20107;-68
2023/05/14 06:34:13;;;;;;;;;;;;;;;9.97;91.03;100847.28;5053581;28;20503;-68
2023/05/14 06:37:16;;;;;;;5.25;4.38;;;;;;;10.05;91.60;100853.00;5052980;28;19987;-68
2023/05/14 06:40:19;;;;;;;;;;;;;;;10.16;90.41;100849.91;5053555;28;20032;-68
2023/05/14 06:43:23;;;;;;;5.57;4.43;;;;;;;10.35;90.51;100837.72;5052993;28;20284;-68
2023/05/14 06:46:26;;;;;;;5.28;4.78;;;;;;;10.51;90.81;100844.84;5052657;28;20079;-69
2023/05/14 06:49:30;;;;;;;7.10;4.72;;;;;;;10.37;89.59;100846.34;5052821;28;20055;-69
2023/05/14 06:52:34;;;;;;;5.72;4.70;;;;;;;10.43;89.82;100843.44;5052724;28;20111;-68
2023/05/14 06:55:37;;;;;;;6.22;5.25;;;;;;;10.53;90.45;100840.38;5052816;28;20140;-68
2023/05/14 06:58:41;;;;;;;6.00;4.53;;;;;;;10.74;88.51;100842.00;5052662;28;20047;-68
2023/05/14 07:01:44;;;;;;;5.75;4.50;;;;;;;10.74;87.10;100842.00;5052511;28;20115;-68
2023/05/14 07:04:47;;;;;;;5.50;4.90;;;;;;;10.70;88.42;100843.91;5051957;28;20044;-69
2023/05/14 07:07:51;;;;;;;6.35;5.07;;;;;;;10.68;88.55;100842.28;5052476;28;20135;-68
2023/05/14 07:10:56;;;;;;;5.38;4.63;;;;;;;10.79;88.96;100847.84;5051571;28;20099;-68
2023/05/14 07:13:59;;;;;;;5.53;4.90;;;;;;;10.85;88.58;100844.94;5051641;28;20463;-68
2023/05/14 07:17:02;;;;;;;;;;;;;;;11.01;88.92;100844.19;5052048;28;20129;-68
2023/05/14 07:20:07;;;;;;;8.13;5.55;;;;;;;10.65;90.02;100838.03;5051252;28;19959;-67
2023/05/14 07:23:10;;;;;;;6.47;5.78;;;;;;;10.89;89.06;100832.56;5052272;28;20543;-68
2023/05/14 07:26:13;;;;;;;6.78;6.03;;;;;;;11.00;89.14;100827.63;5052399;28;20559;-68
2023/05/14 07:29:16;;;;;;;;;;;;;;;11.28;88.66;100821.88;5052787;28;20045;-68
2023/05/14 07:32:20;;;;;;;5.75;5.25;;;;;;;11.33;87.80;100819.88;5052643;28;20039;-68
2023/05/14 07:35:25;;;;;;;6.78;5.10;;;;;;;11.58;87.47;100814.25;5040010;28;20075;-68
2023/05/14 07:38:30;;;;;;;6.03;5.35;;;;;;;11.57;86.54;100807.28;5050403;28;20040;-68
2023/05/14 07:41:32;;;;;;;6.05;4.90;;;;;;;11.56;86.57;100804.78;5052525;28;20099;-68
2023/05/14 07:44:35;;;;;;;;;;;;;;;11.72;86.94;100800.41;5052537;28;20090;-68
2023/05/14 07:47:41;;;;;;;8.50;5.70;;;;;;;11.68;87.49;100808.50;5052331;28;19984;-68
2023/05/14 07:50:45;;;;;;;6.22;5.13;;;;;;;11.89;88.45;100801.31;5050808;28;20606;-68
2023/05/14 07:53:48;;;;;;;6.70;5.93;;;;;;;11.94;87.43;100794.91;5049601;28;20075;-69
2023/05/14 07:56:51;;;;;;;6.10;5.30;;;;;;;12.03;86.71;100797.06;5051367;28;20068;-69
2023/05/14 07:59:55;;;;;;;8.85;5.20;;;;;;;12.09;87.13;100801.09;5041549;28;20044;-69
2023/05/14 08:02:59;;;;;;;6.90;5.30;;;;;;;12.17;86.00;100792.84;5034844;28;20532;-69
2023/05/14 08:06:03;;;;;;;7.65;4.95;;;;;;;12.24;84.27;100794.19;5035435;28;20052;-69
2023/05/14 08:09:07;;;;;;;7.68;4.95;;;;;;;12.31;84.33;100788.50;5035416;28;20096;-69
2023/05/14 08:12:10;;;;;;;6.45;5.35;;;;;;;12.47;84.69;100792.91;4996111;28;20045;-69
2023/05/14 08:15:14;;;;;;;6.10;5.07;;;;;;;12.66;83.76;100798.81;4996630;28;20061;-69
2023/05/14 08:18:20;;;;;;;5.57;4.85;;;;;;;12.85;82.67;100788.09;4996751;28;20045;-69
2023/05/14 08:21:23;;;;;;;7.40;5.63;;;;;;;12.98;80.78;100793.50;4995193;28;20128;-69
2023/05/14 08:24:26;;;;;;;;;;;;;;;12.98;80.73;100791.72;4996409;28;20049;-70
2023/05/14 08:27:29;;;;;;;4.95;4.05;;;;;;;13.24;79.72;100786.72;4995116;28;19967;-69
2023/05/14 08:30:33;;;;;;;9.00;4.93;;;;;;;13.37;79.44;100789.47;4995839;28;20081;-69
2023/05/14 08:33:36;;;;;;;6.82;4.47;;;;;;;13.35;79.53;100786.13;4999337;28;20561;-67
2023/05/14 08:36:41;;;;;;;4.75;4.05;;;;;;;13.36;78.38;100777.28;5015364;28;20529;-68
2023/05/14 08:39:44;;;;;;;7.13;4.57;;;;;;;13.38;80.19;100767.56;5003368;28;20480;-71
2023/05/14 08:42:50;;;;;;;6.15;4.63;;;;;;;13.44;79.72;100765.41;5015689;28;20186;-69
2023/05/14 08:46:04;;;;;;;8.18;4.72;;;;;;;13.64;78.65;100758.94;5015481;28;20091;-70
2023/05/14 08:49:29;;;;;;;5.10;4.60;;;;;;;13.84;80.25;100752.44;5034688;28;20095;-69
2023/05/14 08:52:34;;;;;;;5.20;4.70;;;;;;;13.93;78.70;100748.41;5034764;28;20052;-69
2023/05/14 08:55:38;;;;;;;6.20;4.00;;;;;;;13.90;77.20;100749.44;5034843;28;20053;-69
2023/05/14 08:58:41;;;;;;;6.22;4.45;;;;;;;14.00;77.81;100735.72;5035274;28;20076;-69
2023/05/14 09:01:51;;;;;;;5.05;3.85;;;;;;;14.11;76.36;100736.72;5034623;28;20115;-69
2023/05/14 09:04:57;;;;;;;5.55;3.80;;;;;;;14.12;74.01;100722.63;5024223;28;20084;-71
2023/05/14 09:08:00;;;;;;;5.25;3.45;;;;;;;14.51;75.11;100714.91;5017794;28;20080;-71
2023/05/14 09:11:03;;;;;;;4.90;3.75;;;;;;;14.38;72.01;100723.56;5013972;28;20049;-70
2023/05/14 09:14:06;;;;;;;5.05;3.67;;;;;;;14.53;74.38;100719.13;5014757;28;20068;-70
2023/05/14 09:17:11;;;;;;;7.68;3.35;;;;;;;14.56;71.15;100708.41;5014783;28;20409;-70
2023/05/14 09:20:14;;;;;;;3.92;3.00;;;;;;;14.81;73.94;100712.06;5014787;28;20131;-70
2023/05/14 09:23:17;;;;;;;5.82;2.92;;;;;;;15.02;72.30;100712.38;4995155;28;20052;-70
2023/05/14 09:26:22;;;;;;;;;;;;;;;15.21;71.48;100706.69;5014929;28;20520;-71
2023/05/14 09:29:28;;;;;;;4.47;3.33;;;;;;;15.38;70.30;100701.13;5014328;28;20047;-70
2023/05/14 09:32:35;;;;;;;6.25;2.90;;;;;;;15.48;68.37;100694.25;5024683;28;20033;-70
2023/05/14 09:35:45;;;;;;;4.22;3.05;;;;;;;15.57;68.65;100690.97;5034046;28;20048;-70
2023/05/14 09:38:50;;;;;;;3.63;2.30;;;;;;;15.76;67.71;100690.56;5033986;28;20079;-70
2023/05/14 09:41:54;;;;;;;5.05;2.92;;;;;;;15.95;65.56;100690.06;5027497;28;20041;-69
2023/05/14 09:44:58;;;;;;;5.35;2.53;;;;;;;16.02;63.70;100680.75;5030100;28;20044;-70
2023/05/14 09:48:02;;;;;;;3.65;2.20;;;;;;;16.19;63.06;100681.31;5034100;28;20044;-70
2023/05/14 09:51:05;;;;;;;4.25;2.15;;;;;;;16.22;64.12;100670.56;5033821;28;20103;-70
2023/05/14 09:54:09;;;;;;;3.95;2.22;;;;;;;16.38;62.49;100668.47;5021807;28;20052;-70
2023/05/14 09:57:12;;;;;;;3.45;1.80;;;;;;;16.50;62.26;100667.53;5034171;28;20504;-70
2023/05/14 10:00:21;;;;;;;4.28;2.17;;;;;;;16.39;59.10;100658.75;5033341;28;20040;-70
2023/05/14 10:03:28;;;;;;;2.97;1.83;;;;;;;16.45;61.87;100650.38;5033325;28;20095;-70
2023/05/14 10:06:36;;;;;;;3.05;2.00;;;;;;;16.63;61.33;100656.06;5050125;28;20051;-70
2023/05/14 10:09:41;;;;;;;2.60;1.80;;;;;;;16.81;61.98;100654.69;5053168;28;20051;-70
2023/05/14 10:12:51;;;;;;;4.60;1.70;;;;;;;16.74;60.82;100651.63;5053448;28;20115;-69
2023/05/14 10:16:10;;;;;;;3.17;1.80;;;;;;;16.83;60.57;100644.03;5053434;28;20570;-70
2023/05/14 10:19:16;;;;;;;4.55;2.17;;;;;;;16.98;59.41;100652.56;5053303;28;20098;-70
2023/05/14 10:22:22;;;;;;;4.85;2.42;;;;;;;17.13;61.08;100646.06;5053090;28;20102;-70
2023/05/14 10:25:26;;;;;;;4.97;1.85;;;;;;;17.23;60.21;100641.78;5012552;28;20100;-70
2023/05/14 10:28:30;;;;;;;3.60;1.75;;;;;;;17.40;59.18;100641.28;5011755;28;20122;-71
2023/05/14 10:31:46;;;;;;;3.53;1.35;;;;;;;17.58;56.23;100638.13;5013055;28;20128;-70
2023/05/14 10:34:49;;;;;;;5.65;1.42;;;;;;;17.62;55.36;100632.50;5013432;28;20053;-70
2023/05/14 10:37:52;;;;;;;2.83;1.20;;;;;;;17.59;54.77;100631.91;5013674;28;20052;-71
2023/05/14 10:40:59;;;;;;;2.72;1.50;;;;;;;17.71;55.18;100630.06;5013662;28;20084;-70
2023/05/14 10:44:08;;;;;;;2.58;1.25;;;;;;;17.81;54.79;100626.59;5013203;28;20049;-70
2023/05/14 10:47:12;;;;;;;2.40;1.20;;;;;;;17.82;53.83;100630.06;5013535;28;20405;-70
2023/05/14 10:50:17;;;;;;;2.78;1.20;;;;;;;17.75;52.76;100629.69;5010660;28;20048;-70
2023/05/14 10:53:39;;;;;;;2.28;1.00;;;;;;;17.98;53.34;100619.91;5012950;28;20049;-70
2023/05/14 10:56:45;;;;;;;3.05;1.17;;;;;;;18.11;51.13;100622.41;5013228;28;20470;-71
2023/05/14 10:59:53;;;;;;;5.85;1.13;;;;;;;18.12;52.71;100617.00;5013156;28;20453;-71
2023/05/14 11:02:57;;;;;;;2.03;1.13;;;;;;;18.11;52.66;100607.34;5013370;28;20508;-71
2023/05/14 11:06:02;;;;;;;3.58;1.63;;;;;;;18.03;52.76;100603.69;5012722;28;20068;-70
2023/05/14 11:09:06;;;;;;;2.75;1.48;;;;;;;18.08;52.39;100602.31;5008917;28;20057;-69
2023/05/14 11:12:09;;;;;;;5.18;1.30;;;;;;;18.29;52.68;100598.88;5013024;28;20065;-68
2023/05/14 11:15:19;;;;;;;3.35;1.40;;;;;;;18.16;51.82;100601.69;5013022;28;20101;-69
2023/05/14 11:18:30;;;;;;;4.28;1.50;;;;;;;18.17;52.30;100592.78;5010801;28;20073;-69
2023/05/14 11:21:33;;;;;;;2.20;1.20;;;;;;;18.18;51.98;100583.88;5000734;28;20117;-69
2023/05/14 11:24:37;;;;;;;3.22;1.17;;;;;;;18.30;52.59;100577.56;5050325;28;20136;-71
2023/05/14 11:27:42;;;;;;;3.15;1.38;;;;;;;18.46;53.51;100573.63;5052422;28;20094;-68
2023/05/14 11:30:47;;;;;;;2.83;1.40;;;;;;;18.65;52.27;100575.53;5052246;28;20596;-68
2023/05/14 11:33:53;;;;;;;3.92;1.40;;;;;;;18.64;50.48;100582.66;5035344;28;20527;-68
2023/05/14 11:36:56;;;;;;;3.17;1.98;;;;;;;18.47;51.53;100567.34;5026684;28;20404;-69
2023/05/14 11:40:00;;;;;;;4.93;1.60;;;;;;;18.44;52.26;100571.13;5043933;28;20083;-69
2023/05/14 11:43:04;;;;;;;3.80;1.55;;;;;;;18.49;51.88;100560.97;5056391;28;20044;-68
2023/05/14 11:46:16;;;;;;;3.03;1.20;;;;;;;18.78;50.70;100557.66;5056377;28;20098;-69
2023/05/14 11:49:22;;;;;;;2.45;1.20;;;;;;;18.99;50.16;100565.56;5056310;28;20128;-69
2023/05/14 11:52:25;;;;;;;3.50;1.70;;;;;;;18.70;49.80;100555.66;5056363;28;20103;-69
2023/05/14 11:55:29;;;;;;;3.47;1.80;;;;;;;18.94;51.21;100546.56;5056176;28;20045;-68
2023/05/14 11:58:33;;;;;;;2.42;1.17;;;;;;;19.19;51.16;100547.91;5056187;28;20076;-67
2023/05/14 12:01:37;;;;;;;3.20;1.30;;;;;;;19.09;50.76;100545.25;5045170;28;20141;-68
2023/05/14 12:04:41;;;;;;;4.05;1.10;;;;;;;19.24;49.88;100538.59;5036122;28;20520;-68
2023/05/14 12:07:45;;;;;;;3.10;1.73;;;;;;;19.23;48.45;100534.25;5035851;28;20048;-69
2023/05/14 12:10:49;;;;;;;4.15;1.88;;;;;;;19.52;48.03;100530.81;5036059;28;20100;-68
2023/05/14 12:13:56;;;;;;;2.40;1.10;;;;;;;19.77;53.21;100537.44;5035847;28;20039;-69
2023/05/14 12:17:00;;;;;;;2.88;1.38;;;;;;;19.80;52.07;100533.66;5035215;28;20045;-73
2023/05/14 12:20:09;;;;;;;3.63;1.30;;;;;;;19.54;51.66;100520.91;5035781;28;20087;-73
2023/05/14 12:23:12;;;;;;;6.20;1.60;;;;;;;19.45;53.11;100525.22;5035735;28;20412;-74
2023/05/14 12:26:16;;;;;;;2.30;1.23;;;;;;;19.47;52.75;100523.28;5032641;28;20139;-74
2023/05/14 12:29:20;;;;;;;2.17;1.13;;;;;;;19.52;49.62;100517.56;5023177;28;20044;-71
2023/05/14 12:32:34;;;;;;;3.22;1.20;;;;;;;19.63;49.44;100511.31;5035508;28;20048;-70
2023/05/14 12:35:38;;;;;;;3.08;1.33;;;;;;;19.67;48.83;100512.72;5035520;28;20100;-70
2023/05/14 12:38:42;;;;;;;2.80;1.40;;;;;;;19.74;48.72;100513.81;5034956;28;20144;-70
2023/05/14 12:41:45;;;;;;;3.97;1.30;;;;;;;20.13;49.04;100509.34;5034584;28;20400;-70
2023/05/14 12:44:48;;;;;;;3.25;1.48;;;;;;;20.10;48.21;100504.31;5034630;28;20102;-70
2023/05/14 12:47:52;;;;;;;3.55;1.20;;;;;;;20.11;47.76;100495.38;5035340;28;20036;-70
2023/05/14 12:51:02;;;;;;;3.03;1.13;;;;;;;20.55;47.39;100492.19;5034504;28;20515;-70
2023/05/14 12:54:05;;;;;;;2.25;1.10;;;;;;;20.87;46.00;100484.66;5021516;28;20080;-70
2023/05/14 12:57:12;;;;;;;2.35;1.17;;;;;;;20.82;45.13;100478.09;5014219;28;20065;-70
2023/05/14 13:00:18;;;;;;;2.50;1.10;;;;;;;20.86;43.84;100471.50;5015206;28;20056;-70
2023/05/14 13:03:28;;;;;;;3.00;0.95;;;;;;;21.19;42.98;100458.59;5033114;28;20076;-70
2023/05/14 13:06:35;;;;;;;3.58;1.10;;;;;;;21.18;43.73;100451.59;5034967;28;20124;-70
2023/05/14 13:09:39;;;;;;;3.15;0.88;;;;;;;21.10;44.60;100466.47;5017420;28;20057;-70
2023/05/14 13:12:45;;;;;;;1.92;0.80;;;;;;;20.81;43.00;100449.88;5014084;28;20072;-70
2023/05/14 13:15:49;;;;;;;2.47;0.90;;;;;;;20.86;43.67;100445.75;5014856;28;20044;-70
2023/05/14 13:18:54;;;;;;;2.03;1.00;;;;;;;21.21;42.96;100438.81;5014770;28;20041;-70
2023/05/14 13:21:58;;;;;;;3.80;0.93;;;;;;;21.70;41.74;100431.34;5014936;28;20041;-70
2023/05/14 13:25:02;;;;;;;2.85;1.05;;;;;;;22.03;40.69;100431.56;4991471;28;20421;-70
2023/05/14 13:28:05;;;;;;;1.65;0.70;;;;;;;22.36;40.30;100421.09;5002685;28;20041;-69
2023/05/14 13:31:11;;;;;;;1.88;0.70;;;;;;;22.12;39.93;100421.78;5013737;28;20513;-70
2023/05/14 13:34:14;;;;;;;2.60;1.00;;;;;;;22.08;41.08;100423.09;5013579;28;20141;-70
2023/05/14 13:37:23;;;;;;;3.17;0.90;;;;;;;22.75;41.08;100418.78;5014733;28;20044;-70
2023/05/14 13:40:30;;;;;;;2.28;0.82;;;;;;;22.84;38.99;100415.13;5002367;28;20056;-70
2023/05/14 13:43:35;;;;;;;3.15;0.88;;;;;;;23.18;37.02;100401.72;5002430;28;20124;-76
2023/05/14 13:46:46;;;;;;;2.65;1.00;;;;;;;23.61;39.50;100398.91;4992716;28;20044;-76
2023/05/14 13:49:51;;;;;;;1.90;0.82;;;;;;;23.60;38.64;100397.25;5014270;28;20104;-75
2023/05/14 13:52:56;;;;;;;2.38;0.88;;;;;;;23.41;37.68;100401.91;5014183;28;20049;-76
2023/05/14 13:56:02;;;;;;;1.42;0.70;;;;;;;23.80;36.84;100395.06;5014091;28;20112;-76
2023/05/14 13:59:07;;;;;;;5.57;0.75;;;;;;;24.69;35.29;100377.94;5014073;28;20061;-77
2023/05/14 14:02:10;;;;;;;1.63;0.70;;;;;;;25.26;34.24;100376.75;5028953;28;20462;-77
2023/05/14 14:05:14;;;;;;;2.92;1.10;;;;;;;25.70;34.10;100374.19;5033751;28;20100;-70
2023/05/14 14:08:18;;;;;;;2.78;1.10;;;;;;;25.57;33.13;100373.16;5033542;28;20048;-71
2023/05/14 14:11:21;;;;;;;2.92;1.15;;;;;;;26.35;32.83;100378.00;5033466;28;20044;-70
2023/05/14 14:14:24;;;;;;;1.85;0.70;;;;;;;27.21;30.81;100366.66;5033940;28;20053;-70
2023/05/14 14:17:28;;;;;;;1.65;0.70;;;;;;;26.92;30.50;100363.03;5033071;28;20040;-70
2023/05/14 14:20:35;;;;;;;4.57;0.70;;;;;;;25.14;33.57;100365.63;5032285;28;20128;-70
2023/05/14 14:23:37;;;;;;;3.80;1.13;;;;;;;23.25;36.30;100358.41;5032859;28;20083;-70
2023/05/14 14:26:42;;;;;;;3.15;1.00;;;;;;;22.48;37.21;100356.72;5033049;28;20044;-70
2023/05/14 14:29:45;;;;;;;2.35;0.65;;;;;;;22.50;38.92;100368.06;5033546;28;20044;-70
2023/05/14 14:32:49;;;;;;;2.20;0.77;;;;;;;22.25;38.32;100360.97;5033274;28;20515;-70